Terminal Aerodrome Forecast
Issued by NWS

Home | Current Version | Previous Version | Text Only | Print | Product List | Glossary Off
Versions: 1 2 3 4 5 6 7 8 9 10 11 12 13 14 15 16

000
FTUS43 KMPX 310500
TAFAXN
TAF
KAXN 310530Z 3106/0106 15007KT 6SM BR SCT200
     FM311000 15012KT P6SM VCSH FEW020 BKN050
      TEMPO 3110/3113 3SM -TSRA BKN020CB
     FM311300 15014G20KT P6SM SCT050 BKN100
     FM311700 18014G21KT P6SM SCT020 BKN050
     FM312200 24009KT P6SM SCT040 BKN120
     FM010400 29005KT P6SM SCT200=

USA.gov is the U.S. government's official web portal to all federal, state and local government web resources and services.